createdAt,value
2023-01-21T00:00:58.891Z,0.20
2023-01-21T00:03:25.486Z,0.20
2023-01-21T00:05:52.262Z,0.20
2023-01-21T00:08:18.975Z,0.20
2023-01-21T00:10:45.638Z,0.20
2023-01-21T00:13:12.277Z,0.20
2023-01-21T00:15:38.980Z,0.30
2023-01-21T00:18:07.527Z,0.20
2023-01-21T00:20:34.218Z,0.20
2023-01-21T00:23:00.917Z,0.20
2023-01-21T00:25:27.779Z,0.20
2023-01-21T00:27:54.518Z,0.20
2023-01-21T00:30:21.092Z,0.20
2023-01-21T00:32:47.710Z,0.30
2023-01-21T00:35:14.297Z,0.53
2023-01-21T00:37:40.878Z,0.20
2023-01-21T00:40:07.893Z,0.30
2023-01-21T00:42:34.537Z,0.20
2023-01-21T00:45:01.128Z,0.23
2023-01-21T00:47:28.121Z,0.20
2023-01-21T00:49:54.768Z,0.20
2023-01-21T00:52:21.388Z,0.20
2023-01-21T00:54:47.960Z,0.30
2023-01-21T00:57:14.580Z,0.20
2023-01-21T00:59:41.401Z,0.20
2023-01-21T01:02:08.916Z,0.13
2023-01-21T01:04:35.508Z,0.20
2023-01-21T01:07:02.179Z,0.10
2023-01-21T01:09:28.828Z,0.20
2023-01-21T01:11:55.459Z,1.43
2023-01-21T01:14:22.484Z,0.20
2023-01-21T01:16:49.737Z,0.20
2023-01-21T01:19:16.591Z,0.20
2023-01-21T01:21:43.209Z,0.20
2023-01-21T01:24:09.806Z,0.30
2023-01-21T01:26:36.483Z,0.20
2023-01-21T01:29:04.546Z,0.10
2023-01-21T01:31:31.617Z,0.20
2023-01-21T01:33:58.715Z,0.30
2023-01-21T01:36:25.423Z,0.20
2023-01-21T01:38:53.271Z,0.20
2023-01-21T01:41:22.813Z,0.20
2023-01-21T01:43:56.439Z,0.20
2023-01-21T01:46:24.266Z,0.30
2023-01-21T01:49:17.707Z,0.20
2023-01-21T01:51:51.928Z,0.30
2023-01-21T01:54:23.107Z,0.40
2023-01-21T01:56:52.863Z,0.20
2023-01-21T01:59:19.737Z,0.20
2023-01-21T02:01:46.636Z,0.30
2023-01-21T02:04:18.424Z,0.30
2023-01-21T02:06:45.965Z,0.20
2023-01-21T02:09:12.517Z,0.50
2023-01-21T02:11:39.292Z,0.10
2023-01-21T02:14:06.105Z,0.20
2023-01-21T02:17:00.192Z,0.20
2023-01-21T02:19:58.972Z,0.20
2023-01-21T02:22:29.400Z,0.20
2023-01-21T02:25:37.201Z,0.23
2023-01-21T02:28:13.614Z,0.20
2023-01-21T02:30:57.485Z,0.27
2023-01-21T02:33:43.057Z,0.20
2023-01-21T02:36:37.085Z,0.23
2023-01-21T02:39:11.778Z,0.20
2023-01-21T02:41:56.504Z,0.30
2023-01-21T02:44:42.141Z,0.20
2023-01-21T02:47:32.772Z,0.20
2023-01-21T02:50:03.615Z,0.20
2023-01-21T02:52:30.346Z,0.30
2023-01-21T02:54:59.494Z,0.30
2023-01-21T02:57:42.281Z,0.20
2023-01-21T03:00:14.926Z,0.30
2023-01-21T03:02:56.787Z,0.40
2023-01-21T03:05:29.557Z,0.30
2023-01-21T03:08:04.193Z,0.30
2023-01-21T03:10:36.453Z,0.40
2023-01-21T03:13:07.388Z,0.30
2023-01-21T03:15:59.109Z,0.40
2023-01-21T03:18:28.696Z,0.30
2023-01-21T03:20:58.563Z,0.20
2023-01-21T03:23:36.984Z,0.30
2023-01-21T03:26:05.023Z,0.23
2023-01-21T03:28:33.363Z,0.40
2023-01-21T03:31:29.863Z,0.40
2023-01-21T03:34:00.309Z,0.20
2023-01-21T03:36:50.522Z,0.30
2023-01-21T03:40:00.535Z,0.30
2023-01-21T03:42:27.462Z,0.30
2023-01-21T03:44:54.349Z,0.30
2023-01-21T03:47:31.937Z,0.30
2023-01-21T03:50:07.954Z,0.70
2023-01-21T03:52:34.729Z,0.30
2023-01-21T03:55:01.529Z,0.30
2023-01-21T03:57:28.107Z,0.30
2023-01-21T03:59:54.821Z,0.30
2023-01-21T04:02:21.557Z,0.30
2023-01-21T04:04:48.205Z,0.30
2023-01-21T04:07:17.894Z,0.30
2023-01-21T04:09:44.534Z,0.30
2023-01-21T04:12:11.725Z,0.30
2023-01-21T04:14:38.615Z,0.20
2023-01-21T04:17:05.525Z,0.30
2023-01-21T04:19:32.140Z,0.20
2023-01-21T04:21:58.689Z,0.30
2023-01-21T04:24:25.485Z,0.20
2023-01-21T04:26:52.216Z,0.20
2023-01-21T04:29:18.951Z,0.20
2023-01-21T04:31:46.195Z,0.30
2023-01-21T04:34:12.967Z,0.27
2023-01-21T04:36:39.535Z,0.30
2023-01-21T04:39:06.208Z,0.23
2023-01-21T04:41:32.811Z,0.23
2023-01-21T04:43:59.448Z,0.30
2023-01-21T04:46:25.987Z,0.30
2023-01-21T04:48:52.600Z,0.30
2023-01-21T04:51:19.328Z,0.33
2023-01-21T04:53:45.931Z,0.30
2023-01-21T04:56:12.590Z,0.30
2023-01-21T04:58:39.241Z,0.30
2023-01-21T05:01:05.998Z,0.20
2023-01-21T05:03:32.579Z,0.30
2023-01-21T05:05:59.213Z,0.20
2023-01-21T05:08:25.790Z,0.20
2023-01-21T05:10:52.406Z,0.87
2023-01-21T05:13:19.052Z,0.20
2023-01-21T05:15:45.790Z,0.30
2023-01-21T05:18:12.407Z,0.40
2023-01-21T05:20:39.014Z,0.30
2023-01-21T05:23:05.544Z,0.20
2023-01-21T05:25:32.071Z,6.23
2023-01-21T05:27:58.654Z,0.30
2023-01-21T05:30:25.217Z,0.30
2023-01-21T05:32:55.123Z,0.20
2023-01-21T05:35:22.931Z,0.20
2023-01-21T05:37:52.334Z,0.20
2023-01-21T05:40:19.556Z,2.77
2023-01-21T05:42:48.034Z,0.27
2023-01-21T05:45:14.909Z,0.23
2023-01-21T05:47:41.776Z,0.97
2023-01-21T05:50:09.694Z,0.30
2023-01-21T05:52:36.625Z,0.20
2023-01-21T05:55:04.116Z,0.20
2023-01-21T05:57:30.982Z,0.20
2023-01-21T05:59:57.966Z,0.20
2023-01-21T06:02:24.687Z,0.20
2023-01-21T06:04:51.314Z,0.20
2023-01-21T06:07:17.887Z,0.20
2023-01-21T06:09:44.515Z,0.20
2023-01-21T06:12:11.135Z,0.20
2023-01-21T06:14:37.760Z,0.20
2023-01-21T06:17:04.401Z,0.23
2023-01-21T06:19:31.020Z,0.97
2023-01-21T06:21:57.645Z,0.30
2023-01-21T06:24:24.245Z,0.20
2023-01-21T06:26:50.858Z,0.17
2023-01-21T06:29:17.479Z,0.23
2023-01-21T06:31:44.192Z,0.20
2023-01-21T06:34:12.680Z,0.20
2023-01-21T06:36:42.734Z,0.20
2023-01-21T06:39:11.022Z,0.30
2023-01-21T06:41:37.843Z,1.13
2023-01-21T06:44:05.033Z,0.20
2023-01-21T06:46:31.873Z,0.20
2023-01-21T06:48:58.765Z,2.90
2023-01-21T06:51:25.374Z,0.27
2023-01-21T06:53:52.130Z,0.30
2023-01-21T06:56:18.741Z,0.20
2023-01-21T06:58:45.358Z,0.20
2023-01-21T07:01:11.985Z,0.20
2023-01-21T07:03:38.650Z,1.33
2023-01-21T07:06:05.621Z,0.30
2023-01-21T07:08:32.227Z,0.20
2023-01-21T07:10:58.855Z,0.30
2023-01-21T07:13:25.450Z,1.37
2023-01-21T07:15:52.201Z,0.30
2023-01-21T07:18:19.316Z,0.23
2023-01-21T07:20:45.875Z,0.77
2023-01-21T07:23:12.453Z,0.27
2023-01-21T07:25:39.081Z,0.30
2023-01-21T07:28:05.697Z,0.20
2023-01-21T07:30:32.255Z,0.30
2023-01-21T07:32:58.857Z,0.20
2023-01-21T07:35:25.557Z,0.20
2023-01-21T07:37:52.156Z,0.20
2023-01-21T07:40:18.784Z,0.20
2023-01-21T07:42:51.317Z,3.30
2023-01-21T07:45:18.131Z,0.23
2023-01-21T07:47:44.870Z,0.20
2023-01-21T07:50:11.734Z,0.80
2023-01-21T07:52:38.316Z,0.30
2023-01-21T07:55:05.740Z,0.20
2023-01-21T07:57:32.324Z,2.77
2023-01-21T07:59:58.949Z,0.30
2023-01-21T08:02:25.847Z,0.20
2023-01-21T08:04:52.612Z,0.50
2023-01-21T08:07:19.263Z,0.30
2023-01-21T08:09:45.969Z,0.30
2023-01-21T08:12:12.577Z,0.50
2023-01-21T08:14:39.222Z,0.20
2023-01-21T08:17:05.792Z,1.10
2023-01-21T08:19:32.369Z,0.20
2023-01-21T08:21:59.012Z,0.20
2023-01-21T08:24:25.602Z,0.30
2023-01-21T08:26:52.216Z,0.30
2023-01-21T08:29:18.756Z,0.20
2023-01-21T08:31:45.432Z,0.20
2023-01-21T08:34:12.096Z,0.20
2023-01-21T08:36:39.843Z,0.20
2023-01-21T08:39:06.566Z,0.20
2023-01-21T08:41:33.672Z,0.20
2023-01-21T08:44:00.225Z,0.67
2023-01-21T08:46:27.662Z,0.30
2023-01-21T08:48:54.295Z,0.20
2023-01-21T08:51:20.984Z,0.20
2023-01-21T08:53:50.096Z,0.10
2023-01-21T08:56:16.882Z,0.20
2023-01-21T08:58:43.831Z,0.10
2023-01-21T09:01:13.127Z,0.10
2023-01-21T09:03:39.713Z,0.20
2023-01-21T09:06:07.224Z,0.10
2023-01-21T09:08:34.139Z,0.10
2023-01-21T09:11:01.783Z,0.20
2023-01-21T09:13:30.177Z,0.20
2023-01-21T09:15:57.040Z,0.30
2023-01-21T09:18:23.900Z,0.20
2023-01-21T09:20:50.697Z,1.27
2023-01-21T09:23:26.599Z,0.20
2023-01-21T09:25:54.266Z,0.20
2023-01-21T09:28:23.683Z,0.20
2023-01-21T09:30:50.404Z,0.20
2023-01-21T09:33:17.070Z,0.20
2023-01-21T09:35:44.487Z,0.20
2023-01-21T09:38:12.875Z,0.10
2023-01-21T09:40:44.977Z,0.30
2023-01-21T09:43:17.810Z,0.20
2023-01-21T09:45:45.378Z,0.30
2023-01-21T09:48:19.060Z,0.10
2023-01-21T09:50:47.158Z,0.20
2023-01-21T09:53:41.432Z,0.20
2023-01-21T09:56:19.139Z,0.93
2023-01-21T09:58:50.500Z,0.20
2023-01-21T10:01:26.786Z,0.20
2023-01-21T10:03:56.830Z,0.20
2023-01-21T10:06:30.596Z,0.10
2023-01-21T10:09:06.108Z,0.20
2023-01-21T10:11:53.985Z,0.20
2023-01-21T10:14:56.829Z,0.20
2023-01-21T10:17:47.644Z,0.10
2023-01-21T10:20:41.976Z,0.20
2023-01-21T10:23:43.163Z,0.20
2023-01-21T10:26:12.614Z,0.20
2023-01-21T10:28:59.332Z,0.20
2023-01-21T10:31:28.826Z,0.20
2023-01-21T10:33:56.190Z,0.20
2023-01-21T10:36:40.452Z,0.20
2023-01-21T10:39:22.156Z,0.20
2023-01-21T10:42:07.051Z,0.10
2023-01-21T10:44:55.373Z,0.20
2023-01-21T10:47:43.766Z,0.20
2023-01-21T10:50:35.376Z,1.60
2023-01-21T10:53:35.386Z,2.86
2023-01-21T10:56:11.754Z,1.97
2023-01-21T10:58:45.238Z,1.73
2023-01-21T11:01:22.471Z,2.00
2023-01-21T11:03:58.354Z,2.47
2023-01-21T11:06:25.399Z,2.50
2023-01-21T11:08:56.926Z,2.37
2023-01-21T11:11:30.148Z,2.87
2023-01-21T11:13:57.098Z,3.00
2023-01-21T11:16:44.240Z,2.90
2023-01-21T11:19:23.009Z,2.53
2023-01-21T11:22:05.598Z,2.03
2023-01-21T11:24:42.427Z,2.90
2023-01-21T11:27:22.001Z,2.50
2023-01-21T11:29:50.159Z,2.60
2023-01-21T11:32:20.371Z,2.40
2023-01-21T11:34:48.857Z,2.67
2023-01-21T11:37:24.844Z,2.70
2023-01-21T11:39:59.467Z,2.90
2023-01-21T11:42:26.400Z,2.33
2023-01-21T11:45:05.938Z,2.87
2023-01-21T11:47:48.387Z,4.40
2023-01-21T11:50:19.548Z,2.50
2023-01-21T11:52:46.300Z,2.90
2023-01-21T11:55:20.182Z,2.50
2023-01-21T11:57:53.941Z,2.37
2023-01-21T12:00:25.343Z,1.70
2023-01-21T12:02:54.644Z,2.53
2023-01-21T12:05:27.670Z,2.80
2023-01-21T12:07:55.774Z,2.90
2023-01-21T12:10:33.434Z,2.10
2023-01-21T12:13:46.473Z,1.17
2023-01-21T12:16:15.877Z,1.50
2023-01-21T12:19:18.356Z,2.20
2023-01-21T12:21:50.915Z,1.27
2023-01-21T12:24:29.702Z,1.70
2023-01-21T12:27:09.451Z,1.80
2023-01-21T12:29:54.762Z,2.30
2023-01-21T12:32:25.413Z,1.07
2023-01-21T12:35:03.055Z,1.83
2023-01-21T12:37:33.244Z,1.50
2023-01-21T12:40:02.616Z,1.80
2023-01-21T12:42:34.865Z,1.90
2023-01-21T12:45:07.117Z,1.20
2023-01-21T12:47:45.229Z,1.40
2023-01-21T12:50:26.873Z,1.13
2023-01-21T12:53:25.871Z,1.30
2023-01-21T12:56:18.062Z,1.10
2023-01-21T12:59:04.829Z,1.30
2023-01-21T13:01:57.710Z,1.60
2023-01-21T13:04:39.644Z,0.90
2023-01-21T13:07:18.621Z,1.20
2023-01-21T13:10:20.394Z,1.23
2023-01-21T13:12:51.627Z,1.00
2023-01-21T13:15:23.834Z,1.40
2023-01-21T13:18:02.791Z,1.40
2023-01-21T13:20:30.320Z,0.77
2023-01-21T13:23:25.246Z,1.13
2023-01-21T13:26:03.357Z,1.40
2023-01-21T13:28:39.990Z,1.70
2023-01-21T13:31:35.675Z,1.30
2023-01-21T13:34:28.559Z,1.20
2023-01-21T13:37:29.813Z,1.33
2023-01-21T13:40:15.434Z,2.00
2023-01-21T13:43:04.851Z,2.70
2023-01-21T13:46:08.624Z,2.60
2023-01-21T13:48:53.690Z,2.27
2023-01-21T13:51:24.854Z,1.60
2023-01-21T13:54:11.715Z,2.17
2023-01-21T13:56:56.771Z,1.70
2023-01-21T13:59:25.050Z,1.10
2023-01-21T14:01:51.587Z,1.40
2023-01-21T14:04:56.203Z,1.50
2023-01-21T14:07:34.024Z,1.53
2023-01-21T14:10:07.166Z,2.00
2023-01-21T14:12:48.773Z,2.60
2023-01-21T14:15:36.971Z,2.13
2023-01-21T14:18:26.498Z,1.50
2023-01-21T14:21:15.555Z,2.57
2023-01-21T14:24:19.419Z,2.10
2023-01-21T14:26:58.050Z,1.60
2023-01-21T14:29:35.727Z,1.37
2023-01-21T14:32:27.338Z,3.07
2023-01-21T14:35:18.205Z,1.80
2023-01-21T14:38:26.847Z,1.70
2023-01-21T14:41:10.547Z,1.80
2023-01-21T14:43:38.005Z,3.90
2023-01-21T14:46:23.157Z,2.23
2023-01-21T14:49:04.269Z,4.07
2023-01-21T14:51:31.946Z,2.63
2023-01-21T14:54:04.420Z,4.37
2023-01-21T14:56:35.055Z,3.13
2023-01-21T14:59:23.037Z,3.57
2023-01-21T15:01:50.075Z,4.03
2023-01-21T15:04:39.093Z,4.47
2023-01-21T15:07:14.657Z,6.20
2023-01-21T15:09:49.354Z,3.70
2023-01-21T15:12:28.293Z,2.73
2023-01-21T15:15:00.206Z,2.67
2023-01-21T15:17:45.933Z,2.87
2023-01-21T15:20:43.271Z,2.77
2023-01-21T15:23:31.665Z,3.27
2023-01-21T15:26:07.472Z,2.67
2023-01-21T15:28:44.917Z,3.13
2023-01-21T15:31:20.594Z,4.10
2023-01-21T15:33:48.365Z,2.97
2023-01-21T15:36:35.642Z,2.70
2023-01-21T15:39:12.962Z,3.77
2023-01-21T15:41:55.973Z,3.47
2023-01-21T15:44:48.667Z,3.17
2023-01-21T15:47:39.409Z,2.83
2023-01-21T15:50:20.325Z,3.83
2023-01-21T15:53:09.584Z,3.23
2023-01-21T15:55:57.851Z,4.93
2023-01-21T15:58:53.465Z,6.43
2023-01-21T16:01:37.151Z,4.93
2023-01-21T16:04:19.941Z,5.10
2023-01-21T16:07:05.127Z,6.50
2023-01-21T16:09:35.893Z,7.33
2023-01-21T16:12:34.585Z,2.93
2023-01-21T16:15:27.147Z,4.63
2023-01-21T16:18:07.471Z,3.70
2023-01-21T16:20:34.473Z,2.33
2023-01-21T16:23:03.301Z,3.43
2023-01-21T16:25:30.035Z,4.23
2023-01-21T16:27:56.958Z,4.83
2023-01-21T16:30:30.112Z,3.30
2023-01-21T16:33:16.525Z,2.90
2023-01-21T16:35:51.585Z,3.50
2023-01-21T16:38:26.629Z,3.20
2023-01-21T16:41:08.553Z,3.50
2023-01-21T16:43:37.235Z,3.33
2023-01-21T16:46:06.185Z,4.27
2023-01-21T16:48:33.920Z,3.20
2023-01-21T16:51:01.666Z,2.93
2023-01-21T16:53:28.405Z,4.37
2023-01-21T16:55:57.472Z,2.50
2023-01-21T16:58:32.719Z,3.10
2023-01-21T17:01:09.463Z,3.57
2023-01-21T17:03:36.690Z,3.87
2023-01-21T17:06:11.259Z,3.87
2023-01-21T17:08:38.639Z,4.30
2023-01-21T17:11:10.877Z,4.03
2023-01-21T17:13:43.087Z,4.43
2023-01-21T17:16:31.927Z,4.43
2023-01-21T17:19:01.956Z,3.07
2023-01-21T17:21:36.761Z,4.30
2023-01-21T17:24:26.118Z,3.77
2023-01-21T17:26:56.109Z,3.80
2023-01-21T17:29:28.809Z,3.03
2023-01-21T17:32:02.383Z,3.23
2023-01-21T17:34:34.140Z,2.80
2023-01-21T17:37:01.385Z,2.40
2023-01-21T17:39:46.410Z,2.57
2023-01-21T17:42:23.951Z,2.60
2023-01-21T17:44:56.694Z,3.40
2023-01-21T17:47:34.527Z,2.63
2023-01-21T17:50:16.635Z,3.33
2023-01-21T17:52:52.890Z,2.30
2023-01-21T17:55:19.587Z,2.40
2023-01-21T17:57:46.188Z,2.10
2023-01-21T18:00:37.137Z,2.30
2023-01-21T18:03:04.108Z,2.10
2023-01-21T18:05:31.169Z,3.00
2023-01-21T18:07:57.787Z,3.10
2023-01-21T18:10:27.858Z,3.07
2023-01-21T18:12:54.722Z,2.60
2023-01-21T18:15:21.380Z,2.40
2023-01-21T18:17:53.373Z,3.10
2023-01-21T18:20:24.611Z,3.17
2023-01-21T18:22:52.009Z,2.60
2023-01-21T18:25:19.504Z,2.47
2023-01-21T18:27:47.672Z,3.23
2023-01-21T18:30:17.193Z,3.20
2023-01-21T18:32:44.285Z,4.67
2023-01-21T18:35:12.753Z,2.70
2023-01-21T18:37:39.336Z,4.10
2023-01-21T18:40:06.750Z,3.83
2023-01-21T18:42:33.455Z,2.60
2023-01-21T18:45:00.109Z,3.17
2023-01-21T18:47:26.688Z,2.97
2023-01-21T18:49:53.375Z,2.60
2023-01-21T18:52:21.119Z,2.40
2023-01-21T18:54:47.715Z,2.70
2023-01-21T18:57:16.434Z,2.73
2023-01-21T18:59:43.058Z,3.13
2023-01-21T19:02:18.697Z,3.23
2023-01-21T19:04:45.521Z,3.23
2023-01-21T19:07:22.470Z,3.07
2023-01-21T19:09:51.148Z,3.80
2023-01-21T19:12:21.087Z,4.33
2023-01-21T19:14:48.832Z,3.83
2023-01-21T19:17:33.857Z,4.57
2023-01-21T19:20:00.884Z,2.97
2023-01-21T19:22:27.726Z,3.63
2023-01-21T19:24:54.347Z,3.10
2023-01-21T19:27:29.676Z,2.50
2023-01-21T19:29:56.476Z,2.30
2023-01-21T19:32:23.121Z,3.77
2023-01-21T19:34:49.690Z,2.70
2023-01-21T19:37:19.565Z,2.50
2023-01-21T19:39:46.169Z,2.47
2023-01-21T19:42:16.310Z,2.40
2023-01-21T19:44:42.939Z,2.63
2023-01-21T19:47:24.192Z,2.23
2023-01-21T19:49:50.904Z,2.90
2023-01-21T19:52:17.490Z,3.07
2023-01-21T19:54:44.209Z,2.47
2023-01-21T19:57:14.844Z,2.00
2023-01-21T19:59:43.334Z,2.90
2023-01-21T20:02:11.479Z,2.90
2023-01-21T20:04:38.124Z,1.90
2023-01-21T20:07:05.361Z,2.00
2023-01-21T20:09:32.414Z,1.67
2023-01-21T20:11:59.215Z,1.77
2023-01-21T20:14:26.367Z,2.20
2023-01-21T20:16:54.273Z,1.70
2023-01-21T20:19:22.647Z,1.20
2023-01-21T20:22:01.118Z,1.20
2023-01-21T20:24:30.441Z,1.47
2023-01-21T20:26:58.482Z,1.23
2023-01-21T20:29:27.095Z,1.53
2023-01-21T20:31:54.582Z,1.50
2023-01-21T20:34:21.305Z,1.37
2023-01-21T20:36:49.722Z,1.33
2023-01-21T20:39:16.489Z,1.53
2023-01-21T20:41:43.551Z,1.73
2023-01-21T20:44:10.583Z,1.40
2023-01-21T20:46:37.269Z,1.10
2023-01-21T20:49:03.948Z,0.97
2023-01-21T20:51:30.711Z,0.97
2023-01-21T20:53:57.335Z,1.10
2023-01-21T20:56:30.072Z,1.20
2023-01-21T20:58:56.951Z,1.10
2023-01-21T21:01:25.098Z,1.10
2023-01-21T21:03:52.090Z,0.80
2023-01-21T21:06:23.413Z,0.80
2023-01-21T21:08:50.446Z,0.80
2023-01-21T21:11:18.348Z,1.10
2023-01-21T21:13:48.253Z,0.90
2023-01-21T21:16:18.976Z,0.80
2023-01-21T21:18:45.672Z,0.90
2023-01-21T21:21:13.165Z,0.70
2023-01-21T21:23:39.910Z,1.03
2023-01-21T21:26:18.494Z,0.90
2023-01-21T21:28:46.326Z,1.27
2023-01-21T21:31:14.621Z,1.20
2023-01-21T21:33:41.411Z,1.50
2023-01-21T21:36:18.466Z,0.80
2023-01-21T21:38:45.756Z,0.80
2023-01-21T21:41:39.488Z,1.20
2023-01-21T21:44:07.017Z,0.83
2023-01-21T21:46:52.042Z,0.93
2023-01-21T21:49:18.880Z,1.10
2023-01-21T21:51:46.032Z,1.00
2023-01-21T21:54:14.073Z,0.93
2023-01-21T21:56:40.834Z,1.10
2023-01-21T21:59:07.402Z,1.00
2023-01-21T22:01:36.047Z,1.30
2023-01-21T22:04:03.934Z,0.70
2023-01-21T22:06:30.739Z,0.80
2023-01-21T22:08:58.965Z,9.33
2023-01-21T22:11:26.819Z,1.30
2023-01-21T22:13:55.189Z,1.10
2023-01-21T22:16:27.576Z,1.47
2023-01-21T22:18:56.173Z,1.30
2023-01-21T22:21:25.354Z,1.43
2023-01-21T22:23:52.697Z,1.27
2023-01-21T22:26:21.481Z,1.60
2023-01-21T22:28:48.418Z,1.40
2023-01-21T22:31:17.882Z,2.10
2023-01-21T22:33:44.971Z,2.33
2023-01-21T22:36:14.580Z,2.97
2023-01-21T22:38:41.481Z,3.63
2023-01-21T22:41:10.003Z,3.20
2023-01-21T22:43:38.873Z,3.27
2023-01-21T22:46:05.779Z,2.90
2023-01-21T22:48:32.532Z,2.23
2023-01-21T22:51:00.184Z,2.67
2023-01-21T22:53:27.931Z,2.77
2023-01-21T22:55:59.517Z,2.07
2023-01-21T22:58:27.458Z,1.60
2023-01-21T23:00:54.725Z,1.40
2023-01-21T23:03:21.949Z,1.30
2023-01-21T23:05:49.006Z,1.47
2023-01-21T23:08:16.898Z,1.10
2023-01-21T23:10:44.271Z,0.93
2023-01-21T23:13:12.133Z,1.10
2023-01-21T23:15:46.471Z,1.30
2023-01-21T23:18:14.660Z,1.17
2023-01-21T23:20:42.425Z,1.50
2023-01-21T23:23:10.187Z,1.53
2023-01-21T23:25:46.660Z,2.53
2023-01-21T23:28:14.279Z,1.97
2023-01-21T23:30:41.325Z,1.40
2023-01-21T23:33:08.366Z,2.27
2023-01-21T23:35:35.243Z,2.20
2023-01-21T23:38:02.576Z,1.60
2023-01-21T23:40:29.227Z,1.63
2023-01-21T23:42:55.801Z,1.30
2023-01-21T23:45:22.355Z,1.60
2023-01-21T23:47:48.986Z,1.37
2023-01-21T23:50:15.891Z,1.57
2023-01-21T23:52:42.900Z,0.90
2023-01-21T23:55:10.658Z,1.20
2023-01-21T23:57:37.587Z,1.40
